createdAt,value
2022-12-09T00:00:39.155Z,81.81
2022-12-09T00:02:41.576Z,81.58
2022-12-09T00:04:44.840Z,82.37
2022-12-09T00:06:46.852Z,81.86
2022-12-09T00:08:49.412Z,82.14
2022-12-09T00:10:51.404Z,81.97
2022-12-09T00:12:57.257Z,82.00
2022-12-09T00:14:59.214Z,81.91
2022-12-09T00:17:01.214Z,81.93
2022-12-09T00:19:03.471Z,82.02
2022-12-09T00:21:23.682Z,81.79
2022-12-09T00:23:25.722Z,82.36
2022-12-09T00:25:27.773Z,81.89
2022-12-09T00:27:29.783Z,81.96
2022-12-09T00:29:33.876Z,82.17
2022-12-09T00:31:38.443Z,82.07
2022-12-09T00:33:40.499Z,81.95
2022-12-09T00:35:42.736Z,82.42
2022-12-09T00:37:44.810Z,82.19
2022-12-09T00:39:46.878Z,82.35
2022-12-09T00:41:51.631Z,82.01
2022-12-09T00:43:55.384Z,82.35
2022-12-09T00:45:58.385Z,82.10
2022-12-09T00:48:00.499Z,82.45
2022-12-09T00:50:02.499Z,82.37
2022-12-09T00:52:04.525Z,82.25
2022-12-09T00:54:06.621Z,82.03
2022-12-09T00:56:08.951Z,81.97
2022-12-09T00:58:11.395Z,82.33
2022-12-09T01:00:13.764Z,82.31
2022-12-09T01:02:15.901Z,82.25
2022-12-09T01:04:18.005Z,82.33
2022-12-09T01:06:23.238Z,82.24
2022-12-09T01:08:25.286Z,82.20
2022-12-09T01:10:27.488Z,82.12
2022-12-09T01:12:30.492Z,82.06
2022-12-09T01:14:32.497Z,82.04
2022-12-09T01:16:35.167Z,81.98
2022-12-09T01:18:37.177Z,82.14
2022-12-09T01:20:39.489Z,82.34
2022-12-09T01:22:41.688Z,82.29
2022-12-09T01:24:45.666Z,82.01
2022-12-09T01:26:48.860Z,81.70
2022-12-09T01:28:53.412Z,82.12
2022-12-09T01:30:55.471Z,82.14
2022-12-09T01:32:57.537Z,82.27
2022-12-09T01:34:59.833Z,82.25
2022-12-09T01:37:01.805Z,82.18
2022-12-09T01:39:06.518Z,82.38
2022-12-09T01:41:08.787Z,82.35
2022-12-09T01:43:20.880Z,81.72
2022-12-09T01:45:23.609Z,82.23
2022-12-09T01:47:27.902Z,82.02
2022-12-09T01:49:32.956Z,82.16
2022-12-09T01:51:36.055Z,81.79
2022-12-09T01:53:41.689Z,82.02
2022-12-09T01:55:44.561Z,82.03
2022-12-09T01:57:48.413Z,81.95
2022-12-09T01:59:50.513Z,81.77
2022-12-09T02:02:06.254Z,82.14
2022-12-09T02:04:09.379Z,81.75
2022-12-09T02:06:11.442Z,81.78
2022-12-09T02:08:15.396Z,81.91
2022-12-09T02:10:19.862Z,81.82
2022-12-09T02:12:51.319Z,82.28
2022-12-09T02:15:06.046Z,81.78
2022-12-09T02:17:27.939Z,81.82
2022-12-09T02:19:56.584Z,81.78
2022-12-09T02:22:00.099Z,82.13
2022-12-09T02:24:13.073Z,81.81
2022-12-09T02:26:45.359Z,81.97
2022-12-09T02:29:05.692Z,81.87
2022-12-09T02:31:27.247Z,81.68
2022-12-09T02:33:50.695Z,81.89
2022-12-09T02:36:05.867Z,81.64
2022-12-09T02:38:32.497Z,81.68
2022-12-09T02:40:40.669Z,81.96
2022-12-09T02:42:46.570Z,82.08
2022-12-09T02:44:50.922Z,81.71
2022-12-09T02:46:54.759Z,81.89
2022-12-09T02:49:00.329Z,81.86
2022-12-09T02:51:08.042Z,81.59
2022-12-09T02:53:13.642Z,81.88
2022-12-09T02:55:18.507Z,81.82
2022-12-09T02:57:25.553Z,81.76
2022-12-09T02:59:27.772Z,82.07
2022-12-09T03:02:05.679Z,82.37
2022-12-09T03:04:10.864Z,81.84
2022-12-09T03:06:17.245Z,82.18
2022-12-09T03:08:42.892Z,82.11
2022-12-09T03:11:03.668Z,82.35
2022-12-09T03:13:28.900Z,82.33
2022-12-09T03:15:36.101Z,82.09
2022-12-09T03:17:43.637Z,82.35
2022-12-09T03:20:00.902Z,81.94
2022-12-09T03:22:09.283Z,82.45
2022-12-09T03:24:15.911Z,82.59
2022-12-09T03:26:19.073Z,82.34
2022-12-09T03:28:28.505Z,82.15
2022-12-09T03:30:37.984Z,82.30
2022-12-09T03:32:42.852Z,82.61
2022-12-09T03:34:47.955Z,82.78
2022-12-09T03:36:53.197Z,82.07
2022-12-09T03:38:56.185Z,82.28
2022-12-09T03:41:07.343Z,82.11
2022-12-09T03:43:16.488Z,82.12
2022-12-09T03:45:20.182Z,81.93
2022-12-09T03:47:22.731Z,81.98
2022-12-09T03:49:24.850Z,82.27
2022-12-09T03:51:41.117Z,81.93
2022-12-09T03:54:14.033Z,82.38
2022-12-09T03:56:19.689Z,82.45
2022-12-09T03:58:23.073Z,82.19
2022-12-09T04:00:26.406Z,82.22
2022-12-09T04:02:29.333Z,82.34
2022-12-09T04:04:33.939Z,82.76
2022-12-09T04:06:36.447Z,82.29
2022-12-09T04:08:38.416Z,82.26
2022-12-09T04:10:40.969Z,82.78
2022-12-09T04:12:42.902Z,82.82
2022-12-09T04:14:45.168Z,82.64
2022-12-09T04:16:47.083Z,82.68
2022-12-09T04:18:49.213Z,82.79
2022-12-09T04:20:51.256Z,82.60
2022-12-09T04:22:53.145Z,82.86
2022-12-09T04:24:54.979Z,82.74
2022-12-09T04:26:56.924Z,82.64
2022-12-09T04:28:59.205Z,82.80
2022-12-09T04:31:01.297Z,82.81
2022-12-09T04:33:03.473Z,82.79
2022-12-09T04:35:06.283Z,82.72
2022-12-09T04:37:09.347Z,82.31
2022-12-09T04:39:13.452Z,82.48
2022-12-09T04:41:16.434Z,82.48
2022-12-09T04:43:18.270Z,82.88
2022-12-09T04:45:20.277Z,83.48
2022-12-09T04:47:23.313Z,83.59
2022-12-09T04:49:26.184Z,83.52
2022-12-09T04:51:34.290Z,83.01
2022-12-09T04:53:41.416Z,83.28
2022-12-09T04:55:43.707Z,83.09
2022-12-09T04:57:46.797Z,83.15
2022-12-09T04:59:48.844Z,83.12
2022-12-09T05:01:50.940Z,83.08
2022-12-09T05:03:54.139Z,83.06
2022-12-09T05:05:56.431Z,83.15
2022-12-09T05:07:58.772Z,82.97
2022-12-09T05:10:01.405Z,82.81
2022-12-09T05:12:09.928Z,82.45
2022-12-09T05:14:13.092Z,83.06
2022-12-09T05:16:17.953Z,83.13
2022-12-09T05:18:20.486Z,82.73
2022-12-09T05:20:22.585Z,82.91
2022-12-09T05:22:25.558Z,83.15
2022-12-09T05:24:32.871Z,83.13
2022-12-09T05:26:35.045Z,83.25
2022-12-09T05:28:37.210Z,83.00
2022-12-09T05:30:39.163Z,83.36
2022-12-09T05:32:44.188Z,83.66
2022-12-09T05:34:47.459Z,83.65
2022-12-09T05:36:49.738Z,83.25
2022-12-09T05:38:52.594Z,83.67
2022-12-09T05:40:54.762Z,83.33
2022-12-09T05:42:56.777Z,83.26
2022-12-09T05:44:58.693Z,83.01
2022-12-09T05:47:00.877Z,83.25
2022-12-09T05:49:03.088Z,83.21
2022-12-09T05:51:27.983Z,83.28
2022-12-09T05:53:30.994Z,83.20
2022-12-09T05:55:34.138Z,83.36
2022-12-09T05:57:37.268Z,83.14
2022-12-09T05:59:39.260Z,83.04
2022-12-09T06:01:41.424Z,82.94
2022-12-09T06:03:43.883Z,82.99
2022-12-09T06:05:48.129Z,82.93
2022-12-09T06:07:50.513Z,83.36
2022-12-09T06:09:52.775Z,83.20
2022-12-09T06:11:56.335Z,83.42
2022-12-09T06:13:58.342Z,83.31
2022-12-09T06:16:07.726Z,83.41
2022-12-09T06:18:10.837Z,83.17
2022-12-09T06:20:14.535Z,83.37
2022-12-09T06:22:18.603Z,83.67
2022-12-09T06:24:20.613Z,83.41
2022-12-09T06:26:28.249Z,83.31
2022-12-09T06:28:30.750Z,83.05
2022-12-09T06:30:36.626Z,83.54
2022-12-09T06:32:38.903Z,83.32
2022-12-09T06:34:41.384Z,83.23
2022-12-09T06:36:44.648Z,82.82
2022-12-09T06:38:46.772Z,83.04
2022-12-09T06:40:49.779Z,83.04
2022-12-09T06:42:52.532Z,83.08
2022-12-09T06:44:54.575Z,82.93
2022-12-09T06:46:56.993Z,83.31
2022-12-09T06:48:59.421Z,82.97
2022-12-09T06:51:03.869Z,83.02
2022-12-09T06:53:06.193Z,83.27
2022-12-09T06:55:09.947Z,83.08
2022-12-09T06:57:12.087Z,82.81
2022-12-09T06:59:14.347Z,82.62
2022-12-09T07:01:19.920Z,82.97
2022-12-09T07:03:22.689Z,83.03
2022-12-09T07:05:25.923Z,83.07
2022-12-09T07:07:28.197Z,83.43
2022-12-09T07:09:31.171Z,83.07
2022-12-09T07:11:33.780Z,83.31
2022-12-09T07:13:36.188Z,82.74
2022-12-09T07:15:38.680Z,83.03
2022-12-09T07:17:40.883Z,83.34
2022-12-09T07:19:43.232Z,83.38
2022-12-09T07:21:45.706Z,83.24
2022-12-09T07:23:49.942Z,83.21
2022-12-09T07:25:57.250Z,83.23
2022-12-09T07:27:59.475Z,83.38
2022-12-09T07:30:02.744Z,83.24
2022-12-09T07:32:05.542Z,83.31
2022-12-09T07:34:07.807Z,83.23
2022-12-09T07:36:11.810Z,83.28
2022-12-09T07:38:15.845Z,83.12
2022-12-09T07:40:19.124Z,83.15
2022-12-09T07:42:21.649Z,82.82
2022-12-09T07:44:25.356Z,82.90
2022-12-09T07:46:28.700Z,82.62
2022-12-09T07:48:32.870Z,82.91
2022-12-09T07:50:36.408Z,82.53
2022-12-09T07:52:38.533Z,82.59
2022-12-09T07:54:40.601Z,82.34
2022-12-09T07:56:43.006Z,82.99
2022-12-09T07:58:48.009Z,82.71
2022-12-09T08:00:50.225Z,83.09
2022-12-09T08:02:54.055Z,83.42
2022-12-09T08:04:56.103Z,82.78
2022-12-09T08:06:59.739Z,82.88
2022-12-09T08:09:04.940Z,83.21
2022-12-09T08:11:12.896Z,83.20
2022-12-09T08:13:15.354Z,82.78
2022-12-09T08:15:19.624Z,83.28
2022-12-09T08:17:28.172Z,82.67
2022-12-09T08:19:30.506Z,82.32
2022-12-09T08:21:33.570Z,82.16
2022-12-09T08:23:36.631Z,81.77
2022-12-09T08:25:38.909Z,81.74
2022-12-09T08:27:41.083Z,81.39
2022-12-09T08:29:43.561Z,81.06
2022-12-09T08:31:59.975Z,80.94
2022-12-09T08:34:05.448Z,80.60
2022-12-09T08:36:28.542Z,80.54
2022-12-09T08:38:32.033Z,80.87
2022-12-09T08:40:34.340Z,80.81
2022-12-09T08:42:37.299Z,80.52
2022-12-09T08:44:41.637Z,80.74
2022-12-09T08:46:47.141Z,80.40
2022-12-09T08:48:49.966Z,80.68
2022-12-09T08:50:54.847Z,80.66
2022-12-09T08:52:57.459Z,81.07
2022-12-09T08:54:59.454Z,81.52
2022-12-09T08:57:03.858Z,81.73
2022-12-09T08:59:07.515Z,81.27
2022-12-09T09:01:16.712Z,81.36
2022-12-09T09:03:19.138Z,81.42
2022-12-09T09:05:21.945Z,81.06
2022-12-09T09:07:26.336Z,81.12
2022-12-09T09:09:28.585Z,81.49
2022-12-09T09:11:31.719Z,81.62
2022-12-09T09:13:34.057Z,81.21
2022-12-09T09:15:39.766Z,81.12
2022-12-09T09:17:46.638Z,81.32
2022-12-09T09:19:55.314Z,81.20
2022-12-09T09:21:58.699Z,81.33
2022-12-09T09:24:01.054Z,81.50
2022-12-09T09:26:04.118Z,81.71
2022-12-09T09:28:07.530Z,81.76
2022-12-09T09:30:10.677Z,81.37
2022-12-09T09:32:14.162Z,81.66
2022-12-09T09:34:18.033Z,81.72
2022-12-09T09:36:23.980Z,81.59
2022-12-09T09:38:27.761Z,81.69
2022-12-09T09:40:30.519Z,81.46
2022-12-09T09:42:37.964Z,81.56
2022-12-09T09:44:52.323Z,80.91
2022-12-09T09:46:56.538Z,80.57
2022-12-09T09:49:00.803Z,80.94
2022-12-09T09:51:05.780Z,80.73
2022-12-09T09:53:18.903Z,81.09
2022-12-09T09:55:33.162Z,81.34
2022-12-09T09:58:18.247Z,81.20
2022-12-09T10:00:27.212Z,81.54
2022-12-09T10:02:29.967Z,81.22
2022-12-09T10:05:03.604Z,81.21
2022-12-09T10:07:31.347Z,81.84
2022-12-09T10:09:39.779Z,80.70
2022-12-09T10:12:12.020Z,81.44
2022-12-09T10:14:23.323Z,81.04
2022-12-09T10:16:48.803Z,80.83
2022-12-09T10:19:09.889Z,80.67
2022-12-09T10:21:20.860Z,80.63
2022-12-09T10:23:23.632Z,80.63
2022-12-09T10:25:32.125Z,80.20
2022-12-09T10:27:41.976Z,80.22
2022-12-09T10:29:55.223Z,80.51
2022-12-09T10:31:57.584Z,81.00
2022-12-09T10:33:59.830Z,80.13
2022-12-09T10:36:04.236Z,80.53
2022-12-09T10:38:18.259Z,79.88
2022-12-09T10:40:30.356Z,79.58
2022-12-09T10:42:56.959Z,79.82
2022-12-09T10:45:07.041Z,80.38
2022-12-09T10:47:39.488Z,79.74
2022-12-09T10:49:43.106Z,80.50
2022-12-09T10:51:51.691Z,80.73
2022-12-09T10:54:01.011Z,80.63
2022-12-09T10:56:04.933Z,79.80
2022-12-09T10:58:28.452Z,79.48
2022-12-09T11:00:34.797Z,79.85
2022-12-09T11:02:51.605Z,78.99
2022-12-09T11:04:54.669Z,79.17
2022-12-09T11:07:01.408Z,78.55
2022-12-09T11:09:04.486Z,77.29
2022-12-09T11:11:06.913Z,78.11
2022-12-09T11:13:15.264Z,77.77
2022-12-09T11:15:26.307Z,77.95
2022-12-09T11:17:31.617Z,77.41
2022-12-09T11:19:39.026Z,77.48
2022-12-09T11:21:42.286Z,77.32
2022-12-09T11:24:02.228Z,76.95
2022-12-09T11:26:07.862Z,76.85
2022-12-09T11:28:15.812Z,77.42
2022-12-09T11:30:21.932Z,77.32
2022-12-09T11:32:24.563Z,76.76
2022-12-09T11:34:28.155Z,77.66
2022-12-09T11:36:40.688Z,77.77
2022-12-09T11:38:48.923Z,77.13
2022-12-09T11:41:11.902Z,77.76
2022-12-09T11:43:14.943Z,76.88
2022-12-09T11:45:22.328Z,76.83
2022-12-09T11:47:33.614Z,77.00
2022-12-09T11:50:02.770Z,76.13
2022-12-09T11:52:26.965Z,76.53
2022-12-09T11:54:43.732Z,76.21
2022-12-09T11:56:49.689Z,76.66
2022-12-09T11:59:12.054Z,77.04
2022-12-09T12:01:32.716Z,76.42
2022-12-09T12:03:50.568Z,76.48
2022-12-09T12:05:55.429Z,76.31
2022-12-09T12:08:05.320Z,76.76
2022-12-09T12:10:19.508Z,76.45
2022-12-09T12:12:41.756Z,76.08
2022-12-09T12:14:51.463Z,76.23
2022-12-09T12:17:05.649Z,76.49
2022-12-09T12:19:17.927Z,76.37
2022-12-09T12:21:37.782Z,76.90
2022-12-09T12:23:39.694Z,76.60
2022-12-09T12:26:24.901Z,77.08
2022-12-09T12:28:42.050Z,76.35
2022-12-09T12:30:56.029Z,77.10
2022-12-09T12:35:27.641Z,76.55
2022-12-09T12:37:54.237Z,76.71
2022-12-09T12:40:05.239Z,76.97
2022-12-09T12:43:05.942Z,76.86
2022-12-09T12:45:40.000Z,77.14
2022-12-09T12:47:49.381Z,76.85
2022-12-09T12:49:57.390Z,76.87
2022-12-09T12:52:06.000Z,76.75
2022-12-09T12:54:31.564Z,76.92
2022-12-09T12:56:53.990Z,76.67
2022-12-09T12:58:55.914Z,76.68
2022-12-09T13:01:07.788Z,77.27
2022-12-09T13:03:18.706Z,76.94
2022-12-09T13:05:26.682Z,76.86
2022-12-09T13:08:05.188Z,76.87
2022-12-09T13:10:29.867Z,76.75
2022-12-09T13:13:01.766Z,76.41
2022-12-09T13:15:03.977Z,77.02
2022-12-09T13:17:13.159Z,76.31
2022-12-09T13:19:47.631Z,75.87
2022-12-09T13:21:49.976Z,75.41
2022-12-09T13:24:22.919Z,76.14
2022-12-09T13:26:44.820Z,76.96
2022-12-09T13:28:54.762Z,76.27
2022-12-09T13:31:01.187Z,76.19
2022-12-09T13:33:27.085Z,75.74
2022-12-09T13:35:55.150Z,76.38
2022-12-09T13:37:59.912Z,76.88
2022-12-09T13:40:03.263Z,77.07
2022-12-09T13:42:46.679Z,77.52
2022-12-09T13:44:49.295Z,78.08
2022-12-09T13:46:51.283Z,78.12
2022-12-09T13:48:55.223Z,78.44
2022-12-09T13:50:59.903Z,78.57
2022-12-09T13:53:24.334Z,78.89
2022-12-09T13:55:47.421Z,78.96
2022-12-09T13:58:00.809Z,79.37
2022-12-09T14:00:06.970Z,79.22
2022-12-09T14:02:09.218Z,78.68
2022-12-09T14:04:13.989Z,79.00
2022-12-09T14:06:45.128Z,79.18
2022-12-09T14:08:52.134Z,79.90
2022-12-09T14:10:54.371Z,79.61
2022-12-09T14:12:56.259Z,79.39
2022-12-09T14:15:25.479Z,80.41
2022-12-09T14:17:27.433Z,80.49
2022-12-09T14:19:30.086Z,80.36
2022-12-09T14:21:33.671Z,80.65
2022-12-09T14:23:35.583Z,81.19
2022-12-09T14:25:38.398Z,81.92
2022-12-09T14:28:12.398Z,82.42
2022-12-09T14:30:36.775Z,82.07
2022-12-09T14:32:50.795Z,81.52
2022-12-09T14:35:11.035Z,81.85
2022-12-09T14:37:34.128Z,81.34
2022-12-09T14:39:47.809Z,81.74
2022-12-09T14:42:02.874Z,82.31
2022-12-09T14:44:29.356Z,82.10
2022-12-09T14:46:34.822Z,82.18
2022-12-09T14:48:41.269Z,82.88
2022-12-09T14:50:43.216Z,82.04
2022-12-09T14:53:02.258Z,81.90
2022-12-09T14:55:11.956Z,82.40
2022-12-09T14:57:35.906Z,82.01
2022-12-09T14:59:49.390Z,82.59
2022-12-09T15:01:56.526Z,82.32
2022-12-09T15:04:01.288Z,82.69
2022-12-09T15:06:13.635Z,82.78
2022-12-09T15:08:34.380Z,83.10
2022-12-09T15:10:39.570Z,83.18
2022-12-09T15:12:45.011Z,83.13
2022-12-09T15:14:51.583Z,83.24
2022-12-09T15:16:57.074Z,83.17
2022-12-09T15:19:01.269Z,82.48
2022-12-09T15:21:06.039Z,82.74
2022-12-09T15:23:08.455Z,83.00
2022-12-09T15:25:20.085Z,83.47
2022-12-09T15:27:23.501Z,83.43
2022-12-09T15:29:32.067Z,83.15
2022-12-09T15:31:35.873Z,83.65
2022-12-09T15:33:44.161Z,83.86
2022-12-09T15:35:59.414Z,83.77
2022-12-09T15:38:05.779Z,83.69
2022-12-09T15:40:12.655Z,83.64
2022-12-09T15:42:26.687Z,83.05
2022-12-09T15:44:35.949Z,83.15
2022-12-09T15:46:41.998Z,83.28
2022-12-09T15:48:54.067Z,83.48
2022-12-09T15:51:02.351Z,83.73
2022-12-09T15:53:23.414Z,83.89
2022-12-09T15:55:42.986Z,84.11
2022-12-09T15:57:49.698Z,84.16
2022-12-09T15:59:57.707Z,84.16
2022-12-09T16:02:03.448Z,84.28
2022-12-09T16:04:10.343Z,83.62
2022-12-09T16:06:16.981Z,84.02
2022-12-09T16:08:19.764Z,83.96
2022-12-09T16:10:27.236Z,83.79
2022-12-09T16:12:33.062Z,83.89
2022-12-09T16:14:44.746Z,84.01
2022-12-09T16:16:51.070Z,84.12
2022-12-09T16:18:55.776Z,84.09
2022-12-09T16:21:12.550Z,84.41
2022-12-09T16:23:26.646Z,84.07
2022-12-09T16:25:38.246Z,84.01
2022-12-09T16:27:43.778Z,84.18
2022-12-09T16:29:57.861Z,84.00
2022-12-09T16:32:21.581Z,84.05
2022-12-09T16:34:27.255Z,83.84
2022-12-09T16:36:32.367Z,84.10
2022-12-09T16:38:38.637Z,84.14
2022-12-09T16:40:59.423Z,83.90
2022-12-09T16:43:20.518Z,83.97
2022-12-09T16:45:38.557Z,84.13
2022-12-09T16:47:41.716Z,84.24
2022-12-09T16:49:50.348Z,84.20
2022-12-09T16:51:53.005Z,84.30
2022-12-09T16:53:57.306Z,84.17
2022-12-09T16:56:02.659Z,83.89
2022-12-09T16:58:05.305Z,84.06
2022-12-09T17:00:10.112Z,84.34
2022-12-09T17:02:39.993Z,84.10
2022-12-09T17:04:42.698Z,83.83
2022-12-09T17:06:45.970Z,83.61
2022-12-09T17:08:49.261Z,83.89
2022-12-09T17:10:51.993Z,84.16
2022-12-09T17:12:56.715Z,83.84
2022-12-09T17:15:02.202Z,84.15
2022-12-09T17:17:06.862Z,84.03
2022-12-09T17:19:11.621Z,83.59
2022-12-09T17:21:15.597Z,84.03
2022-12-09T17:23:18.343Z,83.78
2022-12-09T17:25:22.004Z,84.13
2022-12-09T17:27:25.564Z,83.39
2022-12-09T17:29:29.794Z,83.45
2022-12-09T17:31:35.760Z,83.43
2022-12-09T17:33:40.053Z,83.63
2022-12-09T17:35:45.755Z,83.49
2022-12-09T17:37:51.015Z,83.08
2022-12-09T17:40:03.031Z,82.87
2022-12-09T17:42:07.472Z,83.13
2022-12-09T17:44:10.823Z,82.92
2022-12-09T17:46:14.113Z,82.86
2022-12-09T17:48:18.862Z,82.93
2022-12-09T17:50:21.788Z,82.87
2022-12-09T17:52:28.006Z,82.49
2022-12-09T17:54:30.250Z,82.79
2022-12-09T17:56:38.873Z,82.65
2022-12-09T17:58:41.609Z,82.71
2022-12-09T18:00:44.054Z,82.45
2022-12-09T18:02:47.354Z,82.40
2022-12-09T18:04:49.868Z,82.37
2022-12-09T18:06:52.084Z,82.22
2022-12-09T18:08:54.893Z,82.89
2022-12-09T18:11:04.329Z,82.77
2022-12-09T18:13:09.185Z,82.89
2022-12-09T18:15:11.967Z,82.70
2022-12-09T18:17:15.010Z,82.94
2022-12-09T18:19:20.618Z,82.47
2022-12-09T18:21:24.201Z,83.66
2022-12-09T18:23:26.549Z,84.22
2022-12-09T18:25:29.419Z,84.32
2022-12-09T18:27:33.203Z,84.65
2022-12-09T18:29:35.743Z,83.81
2022-12-09T18:31:38.972Z,83.66
2022-12-09T18:33:42.295Z,83.87
2022-12-09T18:35:44.545Z,83.39
2022-12-09T18:37:47.653Z,83.33
2022-12-09T18:39:52.474Z,83.16
2022-12-09T18:41:57.824Z,82.83
2022-12-09T18:44:04.430Z,82.90
2022-12-09T18:46:11.505Z,82.94
2022-12-09T18:48:13.931Z,83.09
2022-12-09T18:50:16.179Z,82.92
2022-12-09T18:52:21.293Z,82.50
2022-12-09T18:54:32.574Z,82.88
2022-12-09T18:56:36.334Z,82.65
2022-12-09T18:59:04.790Z,82.95
2022-12-09T19:01:21.139Z,83.56
2022-12-09T19:03:24.724Z,83.29
2022-12-09T19:05:30.279Z,83.13
2022-12-09T19:07:33.866Z,83.16
2022-12-09T19:09:40.718Z,82.58
2022-12-09T19:11:48.854Z,83.03
2022-12-09T19:13:55.034Z,82.70
2022-12-09T19:15:59.580Z,83.21
2022-12-09T19:18:02.472Z,82.98
2022-12-09T19:20:09.592Z,82.91
2022-12-09T19:22:12.699Z,83.10
2022-12-09T19:24:19.143Z,83.01
2022-12-09T19:26:45.409Z,83.33
2022-12-09T19:28:56.685Z,83.25
2022-12-09T19:31:01.880Z,83.06
2022-12-09T19:33:04.923Z,83.43
2022-12-09T19:35:08.384Z,83.10
2022-12-09T19:37:13.260Z,83.57
2022-12-09T19:39:19.670Z,83.73
2022-12-09T19:41:23.069Z,83.62
2022-12-09T19:43:30.432Z,83.16
2022-12-09T19:45:37.454Z,83.64
2022-12-09T19:47:40.798Z,82.99
2022-12-09T19:49:45.950Z,83.13
2022-12-09T19:51:49.622Z,82.69
2022-12-09T19:53:57.318Z,83.09
2022-12-09T19:56:02.051Z,82.90
2022-12-09T19:58:06.501Z,83.19
2022-12-09T20:00:12.485Z,82.63
2022-12-09T20:02:16.602Z,82.88
2022-12-09T20:04:48.295Z,83.22
2022-12-09T20:06:51.994Z,83.14
2022-12-09T20:08:55.586Z,83.53
2022-12-09T20:10:59.844Z,83.33
2022-12-09T20:13:02.514Z,83.28
2022-12-09T20:15:08.282Z,83.31
2022-12-09T20:17:11.516Z,83.25
2022-12-09T20:19:14.899Z,83.32
2022-12-09T20:21:21.461Z,83.69
2022-12-09T20:23:25.514Z,83.26
2022-12-09T20:25:28.857Z,82.92
2022-12-09T20:27:32.524Z,83.07
2022-12-09T20:29:40.576Z,82.78
2022-12-09T20:31:43.730Z,83.32
2022-12-09T20:33:47.022Z,82.88
2022-12-09T20:35:49.587Z,83.10
2022-12-09T20:37:52.015Z,82.90
2022-12-09T20:39:58.621Z,83.10
2022-12-09T20:42:01.612Z,83.07
2022-12-09T20:44:04.468Z,83.02
2022-12-09T20:46:39.873Z,83.24
2022-12-09T20:48:45.822Z,83.23
2022-12-09T20:50:52.569Z,83.26
2022-12-09T20:52:56.542Z,83.10
2022-12-09T20:55:00.530Z,83.18
2022-12-09T20:57:03.530Z,83.17
2022-12-09T20:59:09.037Z,83.32
2022-12-09T21:01:19.463Z,83.11
2022-12-09T21:03:24.363Z,82.98
2022-12-09T21:05:28.218Z,83.29
2022-12-09T21:07:31.152Z,82.90
2022-12-09T21:09:35.153Z,82.75
2022-12-09T21:11:38.220Z,82.96
2022-12-09T21:13:46.100Z,83.14
2022-12-09T21:15:48.879Z,82.78
2022-12-09T21:17:51.990Z,82.82
2022-12-09T21:19:57.879Z,82.65
2022-12-09T21:22:00.285Z,82.65
2022-12-09T21:24:03.480Z,83.32
2022-12-09T21:26:16.189Z,82.80
2022-12-09T21:28:19.099Z,82.72
2022-12-09T21:30:25.054Z,82.79
2022-12-09T21:32:27.797Z,82.69
2022-12-09T21:34:32.152Z,82.75
2022-12-09T21:36:38.399Z,83.06
2022-12-09T21:38:42.070Z,82.63
2022-12-09T21:40:48.297Z,82.70
2022-12-09T21:42:50.560Z,82.89
2022-12-09T21:44:53.399Z,82.69
2022-12-09T21:46:57.090Z,82.96
2022-12-09T21:49:04.034Z,82.69
2022-12-09T21:51:07.779Z,82.96
2022-12-09T21:53:11.154Z,82.78
2022-12-09T21:55:15.433Z,82.23
2022-12-09T21:57:17.673Z,82.36
2022-12-09T21:59:20.780Z,82.47
2022-12-09T22:01:27.251Z,82.39
2022-12-09T22:03:30.267Z,82.74
2022-12-09T22:05:36.313Z,82.66
2022-12-09T22:07:39.431Z,82.38
2022-12-09T22:09:41.515Z,82.52
2022-12-09T22:11:44.399Z,82.39
2022-12-09T22:13:53.552Z,82.24
2022-12-09T22:16:11.964Z,82.65
2022-12-09T22:18:14.980Z,82.14
2022-12-09T22:21:00.751Z,82.18
2022-12-09T22:22:39.338Z,82.53
2022-12-09T22:24:41.256Z,82.34
2022-12-09T22:26:51.976Z,82.70
2022-12-09T22:29:02.321Z,82.70
2022-12-09T22:31:17.026Z,82.51
2022-12-09T22:33:25.091Z,82.21
2022-12-09T22:35:29.117Z,82.59
2022-12-09T22:37:46.381Z,82.48
2022-12-09T22:39:49.450Z,82.74
2022-12-09T22:42:00.286Z,82.60
2022-12-09T22:44:04.079Z,82.51
2022-12-09T22:46:22.234Z,82.38
2022-12-09T22:48:26.217Z,82.78
2022-12-09T22:50:30.254Z,82.97
2022-12-09T22:52:36.219Z,82.70
2022-12-09T22:54:51.392Z,82.76
2022-12-09T22:57:03.325Z,82.78
2022-12-09T22:59:06.731Z,82.59
2022-12-09T23:01:18.459Z,82.81
2022-12-09T23:03:21.510Z,82.73
2022-12-09T23:05:28.029Z,82.33
2022-12-09T23:07:36.701Z,82.70
2022-12-09T23:09:40.732Z,82.93
2022-12-09T23:12:05.119Z,82.65
2022-12-09T23:14:07.135Z,82.70
2022-12-09T23:16:12.778Z,82.45
2022-12-09T23:18:15.895Z,82.96
2022-12-09T23:20:18.031Z,82.39
2022-12-09T23:22:28.295Z,82.88
2022-12-09T23:24:30.467Z,82.57
2022-12-09T23:26:41.003Z,82.38
2022-12-09T23:28:47.934Z,82.17
2022-12-09T23:30:49.960Z,82.72
2022-12-09T23:32:55.132Z,82.95
2022-12-09T23:35:16.677Z,82.84
2022-12-09T23:37:26.699Z,83.01
2022-12-09T23:39:28.758Z,82.56
2022-12-09T23:41:40.044Z,82.64
2022-12-09T23:43:48.881Z,82.74
2022-12-09T23:46:19.760Z,82.52
2022-12-09T23:48:29.331Z,82.97
2022-12-09T23:50:35.557Z,82.57
2022-12-09T23:52:41.581Z,82.81
2022-12-09T23:54:43.645Z,82.84
2022-12-09T23:56:50.106Z,82.82
2022-12-09T23:58:56.769Z,82.66
